createdAt,value
2022-09-20T00:03:26.478Z,97693.72
2022-09-20T00:08:31.396Z,97692.41
2022-09-20T00:13:36.506Z,97709.16
2022-09-20T00:18:42.055Z,97707.44
2022-09-20T00:23:47.554Z,97729.91
2022-09-20T00:28:52.695Z,97718.34
2022-09-20T00:34:13.982Z,97748.31
2022-09-20T00:39:19.673Z,97744.88
2022-09-20T00:44:43.905Z,97778.69
2022-09-20T00:49:48.648Z,97785.47
2022-09-20T00:54:53.730Z,97792.63
2022-09-20T00:59:58.375Z,97793.56
2022-09-20T01:05:01.905Z,97797.59
2022-09-20T01:10:09.066Z,97807.25
2022-09-20T01:15:14.481Z,97802.16
2022-09-20T01:20:25.962Z,97802.28
2022-09-20T01:26:04.001Z,97805.09
2022-09-20T01:31:16.199Z,97814.22
2022-09-20T01:36:26.775Z,97821.91
2022-09-20T01:41:37.326Z,97830.50
2022-09-20T01:46:45.116Z,97840.22
2022-09-20T01:52:32.627Z,97845.91
2022-09-20T01:58:09.148Z,97845.34
2022-09-20T02:03:56.038Z,97862.72
2022-09-20T02:09:42.460Z,97865.94
2022-09-20T02:14:54.947Z,97869.63
2022-09-20T02:20:24.264Z,97882.38
2022-09-20T02:25:53.028Z,97884.44
2022-09-20T02:31:03.457Z,97906.31
2022-09-20T02:36:24.563Z,97903.25
2022-09-20T02:42:01.382Z,97919.53
2022-09-20T02:47:15.901Z,97921.06
2022-09-20T02:52:30.459Z,97937.13
2022-09-20T02:57:45.691Z,97953.41
2022-09-20T03:03:01.957Z,97947.63
2022-09-20T03:08:34.514Z,97967.09
2022-09-20T03:13:52.038Z,97990.06
2022-09-20T03:19:10.026Z,97998.53
2022-09-20T03:24:24.370Z,98014.81
2022-09-20T03:29:43.894Z,98021.66
2022-09-20T03:34:58.218Z,98019.66
2022-09-20T03:40:25.638Z,98030.69
2022-09-20T03:45:47.391Z,98037.28
2022-09-20T03:51:05.333Z,98042.03
2022-09-20T03:56:33.572Z,98045.72
2022-09-20T04:01:59.489Z,98060.38
2022-09-20T04:07:22.379Z,98069.44
2022-09-20T04:12:34.531Z,98082.56
2022-09-20T04:17:50.225Z,98102.25
2022-09-20T04:22:58.186Z,98117.00
2022-09-20T04:28:11.770Z,98123.03
2022-09-20T04:33:21.658Z,98124.97
2022-09-20T04:38:26.470Z,98140.25
2022-09-20T04:43:55.683Z,98154.19
2022-09-20T04:49:50.118Z,98139.59
2022-09-20T04:55:26.908Z,98156.25
2022-09-20T05:00:44.594Z,98175.78
2022-09-20T05:06:12.917Z,98177.16
2022-09-20T05:11:55.276Z,98192.69
2022-09-20T05:17:16.416Z,98195.97
2022-09-20T05:22:53.203Z,98209.22
2022-09-20T05:28:03.869Z,98215.78
2022-09-20T05:33:20.482Z,98219.22
2022-09-20T05:38:35.747Z,98233.97
2022-09-20T05:43:51.924Z,98252.69
2022-09-20T05:49:07.633Z,98261.91
2022-09-20T05:54:29.265Z,98263.69
2022-09-20T05:59:47.217Z,98265.22
2022-09-20T06:05:01.430Z,98259.53
2022-09-20T06:10:40.657Z,98288.25
2022-09-20T06:15:57.540Z,98283.47
2022-09-20T06:21:15.780Z,98290.72
2022-09-20T06:26:24.135Z,98300.69
2022-09-20T06:31:28.514Z,98293.50
2022-09-20T06:36:54.826Z,98307.09
2022-09-20T06:41:59.557Z,98306.34
2022-09-20T06:47:03.661Z,98319.84
2022-09-20T06:52:11.388Z,98322.47
2022-09-20T06:57:18.765Z,98325.59
2022-09-20T07:02:22.102Z,98344.41
2022-09-20T07:07:27.645Z,98340.03
2022-09-20T07:12:33.701Z,98347.84
2022-09-20T07:17:37.794Z,98346.59
2022-09-20T07:22:42.510Z,98353.00
2022-09-20T07:27:47.230Z,98364.72
2022-09-20T07:32:50.558Z,98369.09
2022-09-20T07:38:00.255Z,98373.28
2022-09-20T07:43:03.786Z,98384.81
2022-09-20T07:48:08.075Z,98378.19
2022-09-20T07:53:12.761Z,98383.94
2022-09-20T07:58:16.939Z,98388.19
2022-09-20T08:03:20.246Z,98395.69
2022-09-20T08:08:25.117Z,98396.50
2022-09-20T08:18:57.427Z,98416.16
2022-09-20T08:24:04.143Z,98415.88
2022-09-20T08:29:08.898Z,98429.78
2022-09-20T08:34:15.148Z,98427.25
2022-09-20T08:45:00.444Z,98440.81
2022-09-20T08:50:10.200Z,98445.22
2022-09-20T08:55:20.264Z,98450.38
2022-09-20T09:00:27.393Z,98454.28
2022-09-20T09:05:35.673Z,98444.63
2022-09-20T09:10:43.133Z,98449.75
2022-09-20T09:15:54.583Z,98450.09
2022-09-20T09:21:00.159Z,98457.75
2022-09-20T09:26:07.741Z,98461.72
2022-09-20T09:31:23.299Z,98454.69
2022-09-20T09:36:28.843Z,98467.34
2022-09-20T09:41:36.206Z,98459.75
2022-09-20T09:46:41.560Z,98467.88
2022-09-20T09:52:03.419Z,98472.66
2022-09-20T09:57:29.210Z,98480.41
2022-09-20T10:03:01.984Z,98479.81
2022-09-20T10:08:18.475Z,98486.38
2022-09-20T10:13:29.726Z,98509.25
2022-09-20T10:18:44.004Z,98495.28
2022-09-20T10:24:13.187Z,98507.59
2022-09-20T10:29:29.073Z,98510.47
2022-09-20T10:34:57.964Z,98524.44
2022-09-20T10:40:09.116Z,98530.25
2022-09-20T10:45:53.246Z,98526.34
2022-09-20T10:50:50.978Z,98519.19
2022-09-20T10:56:09.308Z,98532.88
2022-09-20T11:01:23.063Z,98547.81
2022-09-20T11:06:44.381Z,98553.28
2022-09-20T11:11:52.722Z,98566.94
2022-09-20T11:17:03.904Z,98569.56
2022-09-20T11:22:11.844Z,98578.06
2022-09-20T11:27:20.836Z,98594.09
2022-09-20T11:32:29.056Z,98601.25
2022-09-20T11:37:39.077Z,98601.31
2022-09-20T11:42:43.438Z,98616.09
2022-09-20T11:47:55.313Z,98617.84
2022-09-20T11:53:12.148Z,98626.97
2022-09-20T11:58:20.022Z,98636.13
2022-09-20T12:03:30.299Z,98629.03
2022-09-20T12:08:37.393Z,98635.69
2022-09-20T12:13:43.063Z,98648.28
2022-09-20T12:19:04.360Z,98641.91
2022-09-20T12:24:20.196Z,98647.38
2022-09-20T12:30:15.806Z,98638.16
2022-09-20T12:35:56.193Z,98653.69
2022-09-20T12:41:05.041Z,98658.66
2022-09-20T12:46:12.162Z,98666.72
2022-09-20T12:51:41.253Z,98679.28
2022-09-20T12:56:47.312Z,98696.69
2022-09-20T13:01:51.663Z,98682.88
2022-09-20T13:07:43.826Z,98683.59
2022-09-20T13:12:53.939Z,98700.91
2022-09-20T13:18:03.123Z,98703.91
2022-09-20T13:23:06.781Z,98700.34
2022-09-20T13:28:22.924Z,98702.44
2022-09-20T13:33:26.879Z,98698.78
2022-09-20T13:38:33.717Z,98708.34
2022-09-20T13:43:42.570Z,98705.25
2022-09-20T13:48:49.156Z,98720.44
2022-09-20T13:53:52.668Z,98724.47
2022-09-20T13:58:59.093Z,98733.63
2022-09-20T14:04:08.423Z,98737.00
2022-09-20T14:09:21.671Z,98744.81
2022-09-20T14:14:26.987Z,98734.53
2022-09-20T14:19:35.794Z,98744.44
2022-09-20T14:24:39.857Z,98757.03
2022-09-20T14:29:47.536Z,98755.75
2022-09-20T14:35:00.545Z,98754.28
2022-09-20T14:40:08.303Z,98759.03
2022-09-20T14:45:25.685Z,98757.84
2022-09-20T14:50:32.746Z,98768.44
2022-09-20T14:55:38.552Z,98777.25
2022-09-20T15:00:53.526Z,98775.31
2022-09-20T15:05:58.080Z,98782.69
2022-09-20T15:11:02.719Z,98799.34
2022-09-20T15:16:08.468Z,98807.72
2022-09-20T15:21:13.345Z,98812.75
2022-09-20T15:26:21.333Z,98822.97
2022-09-20T15:31:26.746Z,98829.22
2022-09-20T15:36:33.259Z,98824.47
2022-09-20T15:41:37.527Z,98818.50
2022-09-20T15:46:43.671Z,98838.53
2022-09-20T15:51:49.147Z,98843.44
2022-09-20T15:56:54.207Z,98849.84
2022-09-20T16:02:00.875Z,98856.66
2022-09-20T16:07:07.406Z,98845.81
2022-09-20T16:12:11.734Z,98859.59
2022-09-20T16:17:18.019Z,98857.72
2022-09-20T16:22:24.035Z,98856.78
2022-09-20T16:27:28.267Z,98850.06
2022-09-20T16:32:33.536Z,98855.44
2022-09-20T16:37:38.102Z,98869.06
2022-09-20T16:42:42.453Z,98869.09
2022-09-20T16:47:48.443Z,98871.13
2022-09-20T16:52:52.717Z,98881.91
2022-09-20T16:57:57.558Z,98883.03
2022-09-20T17:03:03.243Z,98881.44
2022-09-20T17:08:07.045Z,98886.66
2022-09-20T17:13:10.961Z,98895.44
2022-09-20T17:18:17.793Z,98904.22
2022-09-20T17:23:21.286Z,98897.47
2022-09-20T17:28:26.300Z,98904.50
2022-09-20T17:33:31.657Z,98907.97
2022-09-20T17:38:40.222Z,98902.84
2022-09-20T17:43:45.078Z,98902.97
2022-09-20T17:48:53.494Z,98922.16
2022-09-20T17:53:58.901Z,98932.69
2022-09-20T17:59:05.417Z,98930.16
2022-09-20T18:04:10.925Z,98931.03
2022-09-20T18:09:17.251Z,98930.22
2022-09-20T18:14:22.916Z,98927.72
2022-09-20T18:19:33.566Z,98934.63
2022-09-20T18:24:37.403Z,98938.16
2022-09-20T18:29:41.806Z,98935.63
2022-09-20T18:34:51.262Z,98940.84
2022-09-20T18:39:55.744Z,98939.16
2022-09-20T18:44:59.632Z,98943.53
2022-09-20T18:50:04.752Z,98947.00
2022-09-20T18:55:09.221Z,98945.34
2022-09-20T19:00:16.797Z,98945.31
2022-09-20T19:05:32.136Z,98941.78
2022-09-20T19:10:43.741Z,98943.50
2022-09-20T19:16:05.988Z,98937.47
2022-09-20T19:21:24.184Z,98946.13
2022-09-20T19:26:30.102Z,98940.13
2022-09-20T19:31:36.345Z,98944.44
2022-09-20T19:36:58.950Z,98950.56
2022-09-20T19:42:15.816Z,98961.94
2022-09-20T19:47:32.346Z,98957.81
2022-09-20T19:52:39.489Z,98959.63
2022-09-20T19:57:47.868Z,98972.59
2022-09-20T20:02:51.749Z,98971.75
2022-09-20T20:08:15.036Z,98981.28
2022-09-20T20:13:42.369Z,98981.34
2022-09-20T20:19:00.879Z,98974.44
2022-09-20T20:24:17.129Z,98933.97
2022-09-20T20:29:20.721Z,98975.50
2022-09-20T20:34:26.515Z,98972.13
2022-09-20T20:39:32.886Z,98973.88
2022-09-20T20:44:36.445Z,98961.00
2022-09-20T20:49:40.896Z,98968.81
2022-09-20T20:54:45.661Z,98967.09
2022-09-20T20:59:49.493Z,98970.53
2022-09-20T21:04:52.845Z,98972.28
2022-09-20T21:09:58.148Z,98974.06
2022-09-20T21:15:01.605Z,98986.19
2022-09-20T21:20:07.853Z,98988.81
2022-09-20T21:25:12.757Z,98967.19
2022-09-20T21:30:17.081Z,98975.88
2022-09-20T21:35:21.675Z,98975.00
2022-09-20T21:40:27.661Z,98987.94
2022-09-20T21:45:31.880Z,98989.69
2022-09-20T21:50:36.231Z,98998.31
2022-09-20T21:55:41.674Z,98996.56
2022-09-20T22:00:45.732Z,98990.53
2022-09-20T22:05:50.030Z,98998.31
2022-09-20T22:10:58.651Z,98983.66
2022-09-20T22:16:07.744Z,98994.00
2022-09-20T22:21:14.240Z,98998.28
2022-09-20T22:26:21.299Z,99001.78
2022-09-20T22:31:26.955Z,98998.31
2022-09-20T22:36:32.973Z,99006.91
2022-09-20T22:41:39.535Z,99009.50
2022-09-20T22:46:43.692Z,99009.50
2022-09-20T22:51:47.799Z,99016.34
2022-09-20T22:56:53.238Z,99013.75
2022-09-20T23:01:57.243Z,99018.91
2022-09-20T23:07:01.446Z,99014.56
2022-09-20T23:12:06.448Z,99020.47
2022-09-20T23:17:10.458Z,99023.00
2022-09-20T23:22:14.554Z,99018.63
2022-09-20T23:27:20.268Z,99016.88
2022-09-20T23:32:23.618Z,99028.16
2022-09-20T23:37:27.701Z,99038.53
2022-09-20T23:42:32.406Z,99034.25
2022-09-20T23:47:36.445Z,99036.84
2022-09-20T23:52:39.764Z,99027.38
2022-09-20T23:57:45.278Z,99021.34
